Time;durP1;ratioP1;P1;durP2;ratioP2;P2;SDS_P1;SDS_P2;PMS_P1;PMS_P2;Temp;Humidity;BMP_temperature;BMP_pressure;BME280_temperature;BME280_humidity;BME280_pressure;Samples;Min_cycle;Max_cycle;Signal;HPM_P1;HPM_P2
2022/04/23 00:01:42;;;;;;;8.27;2.87;;;;;;;13.99;100.00;62298.28;5113036;28;20226;-72
2022/04/23 00:04:09;;;;;;;5.47;2.40;;;;;;;14.22;100.00;62320.47;5112908;28;20245;-72
2022/04/23 00:06:36;;;;;;;5.87;2.67;;;;;;;14.37;100.00;62341.19;5112616;28;20263;-72
2022/04/23 00:09:03;;;;;;;5.33;2.57;;;;;;;13.92;100.00;62285.13;5112695;28;20207;-72
2022/04/23 00:11:29;;;;;;;12.77;2.67;;;;;;;14.34;100.00;62332.84;5113152;28;20190;-74
2022/04/23 00:13:57;;;;;;;9.00;2.60;;;;;;;14.22;100.00;62320.47;5112864;28;20643;-72
2022/04/23 00:16:26;;;;;;;5.97;2.50;;;;;;;14.02;100.00;62304.09;5112868;28;20244;-72
2022/04/23 00:18:53;;;;;;;4.33;2.40;;;;;;;13.88;100.00;62281.34;5112581;28;20226;-72
2022/04/23 00:21:19;;;;;;;10.57;2.77;;;;;;;13.73;100.00;62270.34;5112537;28;20227;-73
2022/04/23 00:23:47;;;;;;;5.43;2.40;;;;;;;13.60;100.00;62253.84;5112775;28;20256;-70
2022/04/23 00:26:14;;;;;;;9.23;2.40;;;;;;;13.36;100.00;62233.16;5112962;28;20263;-72
2022/04/23 00:28:41;;;;;;;4.33;2.50;;;;;;;13.30;100.00;62226.72;5112771;28;20213;-74
2022/04/23 00:31:08;;;;;;;8.07;2.80;;;;;;;13.36;100.00;62223.44;5112502;28;20239;-72
2022/04/23 00:33:37;;;;;;;4.83;2.57;;;;;;;13.39;100.00;62228.69;5109202;28;20203;-72
2022/04/23 00:36:05;;;;;;;6.00;2.50;;;;;;;13.39;100.00;62231.25;5108181;28;20199;-72
2022/04/23 00:38:33;;;;;;;9.17;2.47;;;;;;;13.34;100.00;62228.97;5112334;28;20201;-73
2022/04/23 00:40:59;;;;;;;6.60;2.50;;;;;;;13.46;100.00;62238.78;5111525;28;20281;-71
2022/04/23 00:43:29;;;;;;;7.17;2.73;;;;;;;13.55;100.00;62243.34;5112500;28;20202;-71
2022/04/23 00:45:57;;;;;;;6.83;2.50;;;;;;;13.52;100.00;62245.22;5112322;28;20203;-72
2022/04/23 00:48:26;;;;;;;8.47;2.83;;;;;;;13.61;100.00;62254.34;5112065;28;20206;-73
2022/04/23 00:50:57;;;;;;;5.50;2.80;;;;;;;13.49;100.00;62242.00;5112400;28;20740;-72
2022/04/23 00:53:25;;;;;;;7.17;2.67;;;;;;;13.23;100.00;62208.94;5111946;28;20195;-73
2022/04/23 00:55:52;;;;;;;5.07;2.60;;;;;;;13.41;100.00;62235.97;5112016;28;20630;-73
2022/04/23 00:58:20;;;;;;;7.13;2.80;;;;;;;13.65;100.00;62261.22;5111856;28;20576;-72
2022/04/23 01:00:48;;;;;;;5.70;2.43;;;;;;;13.86;100.00;62286.91;5110612;28;20199;-73
2022/04/23 01:03:15;;;;;;;13.07;3.33;;;;;;;13.95;100.00;62290.88;5110868;28;20199;-72
2022/04/23 01:05:44;;;;;;;11.27;2.70;;;;;;;13.93;100.00;62289.28;5112251;28;20723;-71
2022/04/23 01:08:14;;;;;;;7.67;2.30;;;;;;;13.77;100.00;62268.97;5111916;28;20274;-73
2022/04/23 01:10:42;;;;;;;9.60;2.37;;;;;;;13.24;100.00;62215.16;5111700;28;20230;-72
2022/04/23 01:13:09;;;;;;;7.20;2.70;;;;;;;13.49;100.00;62242.53;5111773;28;20194;-72
2022/04/23 01:15:37;;;;;;;9.93;2.40;;;;;;;13.40;100.00;62234.91;5111720;28;20207;-72
2022/04/23 01:18:05;;;;;;;6.27;2.40;;;;;;;13.46;100.00;62241.34;5111842;28;20194;-71
2022/04/23 01:20:34;;;;;;;11.23;3.47;;;;;;;13.44;100.00;62242.28;5111575;28;20647;-71
2022/04/23 01:23:01;;;;;;;4.63;2.20;;;;;;;13.48;100.00;62244.03;5111744;28;20313;-72
2022/04/23 01:25:33;;;;;;;6.07;2.60;;;;;;;13.40;100.00;62232.34;5111653;28;20658;-73
2022/04/23 01:28:02;;;;;;;8.77;2.63;;;;;;;13.37;100.00;62229.09;5111612;28;20242;-71
2022/04/23 01:30:29;;;;;;;9.47;2.37;;;;;;;13.18;100.00;62208.72;5111608;28;20317;-72
2022/04/23 01:32:55;;;;;;;9.57;2.50;;;;;;;13.05;100.00;62197.84;5111647;28;20195;-72
2022/04/23 01:35:22;;;;;;;9.23;2.87;;;;;;;13.17;100.00;62207.63;5111547;28;20195;-72
2022/04/23 01:37:50;;;;;;;7.20;2.60;;;;;;;13.01;100.00;62195.53;5111907;28;20271;-73
2022/04/23 01:40:17;;;;;;;7.27;3.10;;;;;;;12.69;100.00;62154.06;5111525;28;20273;-72
2022/04/23 01:42:44;;;;;;;4.87;2.43;;;;;;;12.71;100.00;62161.84;5111393;28;20215;-72
2022/04/23 01:45:11;;;;;;;10.97;2.53;;;;;;;12.76;100.00;62163.59;5111620;28;20195;-71
2022/04/23 01:47:38;;;;;;;5.83;2.43;;;;;;;12.65;100.00;62155.41;5111719;28;20260;-71
2022/04/23 01:50:06;;;;;;;6.00;2.13;;;;;;;12.62;100.00;62149.63;5111741;28;20195;-72
2022/04/23 01:52:32;;;;;;;5.30;2.60;;;;;;;12.58;100.00;62145.34;5111406;28;20568;-72
2022/04/23 01:55:01;;;;;;;6.00;2.50;;;;;;;12.30;100.00;62115.28;5111336;28;20203;-71
2022/04/23 01:57:27;;;;;;;5.07;2.23;;;;;;;12.38;100.00;62123.88;5111357;28;20325;-71
2022/04/23 01:59:54;;;;;;;6.00;2.57;;;;;;;12.37;100.00;62122.81;5111738;28;20195;-72
2022/04/23 02:02:22;;;;;;;9.77;2.40;;;;;;;12.43;100.00;62126.69;5111171;28;20226;-73
2022/04/23 02:04:49;;;;;;;6.10;2.50;;;;;;;11.60;100.00;62037.63;5111416;28;20191;-72
2022/04/23 02:07:17;;;;;;;4.47;2.30;;;;;;;12.52;100.00;62138.34;5111443;28;20195;-72
2022/04/23 02:09:43;;;;;;;9.70;2.87;;;;;;;12.63;100.00;62153.25;5111087;28;20559;-72
2022/04/23 02:12:12;;;;;;;10.67;2.73;;;;;;;12.46;100.00;62135.00;5111618;28;20194;-72
2022/04/23 02:14:39;;;;;;;6.60;2.67;;;;;;;12.35;100.00;62122.66;5112448;28;20199;-72
2022/04/23 02:17:05;;;;;;;7.07;2.47;;;;;;;12.33;100.00;62117.97;5115137;28;20560;-71
2022/04/23 02:19:33;;;;;;;8.80;2.70;;;;;;;12.56;100.00;62143.19;5114835;28;20226;-70
2022/04/23 02:22:01;;;;;;;4.70;2.67;;;;;;;12.33;100.00;62118.50;5114956;28;20313;-72
2022/04/23 02:24:27;;;;;;;4.93;2.70;;;;;;;12.28;100.00;62112.59;5114800;28;20203;-72
2022/04/23 02:26:54;;;;;;;6.70;2.47;;;;;;;12.27;100.00;62111.53;5114835;28;20195;-72
2022/04/23 02:29:22;;;;;;;4.57;2.23;;;;;;;12.23;100.00;62107.25;5114763;28;20207;-71
2022/04/23 02:31:49;;;;;;;6.77;2.60;;;;;;;12.19;100.00;62103.50;5114906;28;20203;-72
2022/04/23 02:34:16;;;;;;;12.27;2.83;;;;;;;12.28;100.00;62112.59;5114679;28;20248;-73
2022/04/23 02:36:43;;;;;;;7.30;2.53;;;;;;;12.54;100.00;62138.47;5114795;28;20635;-72
2022/04/23 02:39:10;;;;;;;6.80;2.43;;;;;;;12.58;100.00;62147.88;5114713;28;20688;-71
2022/04/23 02:41:37;;;;;;;4.37;2.40;;;;;;;12.41;100.00;62129.66;5114436;28;20705;-72
2022/04/23 02:44:04;;;;;;;5.40;2.53;;;;;;;11.65;100.00;62045.53;5114812;28;20282;-72
2022/04/23 02:46:32;;;;;;;4.67;2.73;;;;;;;12.34;100.00;62119.03;5114531;28;20199;-72
2022/04/23 02:49:00;;;;;;;5.53;2.73;;;;;;;12.17;100.00;62103.91;5114477;28;20232;-72
2022/04/23 02:51:27;;;;;;;5.00;2.70;;;;;;;12.31;100.00;62118.91;5114252;28;20666;-71
2022/04/23 02:53:54;;;;;;;6.77;3.00;;;;;;;12.24;100.00;62108.84;5114727;28;20259;-72
2022/04/23 02:56:21;;;;;;;8.07;3.13;;;;;;;12.30;100.00;62115.28;5114441;28;20260;-72
2022/04/23 02:58:48;;;;;;;8.97;3.07;;;;;;;12.46;100.00;62132.44;5114294;28;20230;-72
2022/04/23 03:01:15;;;;;;;5.97;3.50;;;;;;;12.22;100.00;62106.69;5114155;28;20575;-72
2022/04/23 03:03:43;;;;;;;21.53;7.97;;;;;;;12.22;100.00;62104.13;5114021;28;20226;-73
2022/04/23 03:06:10;;;;;;;17.40;9.53;;;;;;;12.25;100.00;62109.38;5114000;28;20263;-71
2022/04/23 03:08:38;;;;;;;17.37;7.07;;;;;;;11.46;100.00;62025.69;5114154;28;20216;-72
2022/04/23 03:11:07;;;;;;;14.00;4.33;;;;;;;11.51;100.00;62030.53;5114148;28;20199;-71
2022/04/23 03:13:35;;;;;;;9.57;5.10;;;;;;;12.25;100.00;62107.38;5113892;28;20739;-72
2022/04/23 03:16:03;;;;;;;17.43;6.77;;;;;;;12.17;100.00;62101.34;5114070;28;20257;-72
2022/04/23 03:18:29;;;;;;;12.77;5.53;;;;;;;12.09;100.00;62090.19;5113738;27;20588;-73
2022/04/23 03:20:58;;;;;;;13.97;5.20;;;;;;;12.01;100.00;62086.72;5113922;28;20692;-73
2022/04/23 03:23:25;;;;;;;16.00;5.00;;;;;;;11.97;100.00;62079.34;5113205;28;20229;-72
2022/04/23 03:25:52;;;;;;;11.80;4.60;;;;;;;12.03;100.00;62085.78;5113037;28;20194;-73
2022/04/23 03:28:20;;;;;;;10.13;5.03;;;;;;;11.93;100.00;62075.59;5113569;28;20248;-72
2022/04/23 03:30:47;;;;;;;11.37;4.87;;;;;;;11.95;100.00;62075.19;5113790;28;20245;-72
2022/04/23 03:33:14;;;;;;;13.00;4.70;;;;;;;11.88;100.00;62070.22;5113384;28;20199;-72
2022/04/23 03:35:42;;;;;;;10.10;4.50;;;;;;;11.76;100.00;62060.44;5113456;28;20231;-72
2022/04/23 03:38:10;;;;;;;8.23;4.43;;;;;;;11.73;100.00;62054.66;5113504;28;20231;-72
2022/04/23 03:40:38;;;;;;;13.40;4.33;;;;;;;11.66;100.00;62046.63;5113321;28;20263;-72
2022/04/23 03:43:05;;;;;;;8.53;4.23;;;;;;;11.68;100.00;62051.84;5113251;28;20218;-72
2022/04/23 03:45:33;;;;;;;8.60;4.60;;;;;;;11.83;100.00;62064.88;5113156;28;20578;-71
2022/04/23 03:48:01;;;;;;;12.33;4.70;;;;;;;11.82;100.00;62058.69;5113647;28;20297;-72
2022/04/23 03:50:28;;;;;;;17.23;4.83;;;;;;;11.92;100.00;62074.50;5113447;28;20198;-73
2022/04/23 03:52:56;;;;;;;9.70;3.70;;;;;;;11.29;100.00;62006.94;5113354;28;20256;-72
2022/04/23 03:55:25;;;;;;;10.67;3.93;;;;;;;11.94;100.00;62076.66;5113291;28;20195;-72
2022/04/23 03:57:53;;;;;;;15.67;4.20;;;;;;;11.96;100.00;62080.81;5113223;28;20339;-74
2022/04/23 04:00:21;;;;;;;9.23;4.57;;;;;;;11.99;100.00;62084.03;5113452;28;20195;-72
2022/04/23 04:02:48;;;;;;;13.80;4.77;;;;;;;12.01;100.00;62086.19;5112875;28;20222;-73
2022/04/23 04:05:15;;;;;;;10.10;3.90;;;;;;;11.99;100.00;62079.47;5113081;28;20247;-72
2022/04/23 04:07:43;;;;;;;7.47;3.93;;;;;;;11.93;100.00;62077.59;5113006;27;20202;-71
2022/04/23 04:10:11;;;;;;;13.70;4.10;;;;;;;11.83;100.00;62064.88;5112771;28;20722;-72
2022/04/23 04:12:40;;;;;;;9.70;4.20;;;;;;;11.94;100.00;62074.09;5112746;28;20308;-72
2022/04/23 04:15:09;;;;;;;10.43;4.67;;;;;;;11.92;100.00;62074.50;5112965;28;20202;-73
2022/04/23 04:17:40;;;;;;;12.10;4.83;;;;;;;11.83;100.00;62064.88;5113100;28;20195;-71
2022/04/23 04:20:11;;;;;;;13.83;4.30;;;;;;;11.74;100.00;62055.75;5112576;28;20222;-73
2022/04/23 04:22:39;;;;;;;6.47;3.43;;;;;;;12.01;100.00;62086.72;5112820;28;20314;-71
2022/04/23 04:25:07;;;;;;;12.30;3.83;;;;;;;11.96;100.00;62078.81;5113222;28;20723;-72
2022/04/23 04:27:35;;;;;;;8.07;4.03;;;;;;;12.00;100.00;62082.53;5113487;28;20354;-73
2022/04/23 04:30:04;;;;;;;11.43;3.70;;;;;;;12.13;100.00;62099.59;5112512;28;20239;-73
2022/04/23 04:32:32;;;;;;;12.60;3.70;;;;;;;12.14;100.00;62098.09;5112310;28;20666;-74
2022/04/23 04:34:59;;;;;;;11.40;3.63;;;;;;;12.40;100.00;62128.03;5112329;28;20206;-72
2022/04/23 04:37:27;;;;;;;11.57;3.63;;;;;;;12.43;100.00;62126.16;5112171;28;20276;-72
2022/04/23 04:39:54;;;;;;;11.03;3.83;;;;;;;12.30;100.00;62114.75;5112108;28;20618;-72
2022/04/23 04:42:22;;;;;;;8.30;3.70;;;;;;;12.13;100.00;62096.50;5112029;28;20643;-73
2022/04/23 04:44:49;;;;;;;11.70;3.70;;;;;;;12.17;100.00;62103.91;5112308;28;20203;-72
2022/04/23 04:47:18;;;;;;;15.57;3.87;;;;;;;12.23;100.00;62110.34;5112243;28;20282;-72
2022/04/23 04:49:45;;;;;;;10.00;3.60;;;;;;;12.32;100.00;62116.88;5112154;28;20208;-74
2022/04/23 04:52:12;;;;;;;11.37;3.67;;;;;;;12.27;100.00;62114.09;5112047;28;20252;-73
2022/04/23 04:54:39;;;;;;;11.70;3.27;;;;;;;12.54;100.00;62138.47;5112319;28;20280;-72
2022/04/23 04:57:06;;;;;;;14.63;4.37;;;;;;;12.73;100.00;62160.91;5110969;28;20692;-72
2022/04/23 04:59:33;;;;;;;8.27;3.10;;;;;;;12.99;100.00;62188.28;5112039;28;20206;-72
2022/04/23 05:02:00;;;;;;;9.37;3.50;;;;;;;13.26;100.00;62212.19;5111957;28;20250;-72
2022/04/23 05:04:30;;;;;;;9.10;3.60;;;;;;;13.47;100.00;62240.41;5111920;28;20277;-73
2022/04/23 05:06:57;;;;;;;18.73;6.30;;;;;;;13.71;100.00;62265.63;5111951;28;20251;-72
2022/04/23 05:09:24;;;;;;;13.67;5.27;;;;;;;13.21;100.00;62217.59;5112009;28;20191;-71
2022/04/23 05:11:51;;;;;;;13.13;5.10;;;;;;;13.32;100.00;62226.81;5112156;28;20263;-73
2022/04/23 05:14:18;;;;;;;12.70;4.63;;;;;;;13.47;100.00;62240.41;5111942;28;20237;-72
2022/04/23 05:16:45;;;;;;;9.80;3.97;;;;;;;13.39;100.00;62228.69;5111902;28;20199;-72
2022/04/23 05:19:12;;;;;;;7.13;3.63;;;;;;;13.41;100.00;62233.41;5111410;28;20758;-71
2022/04/23 05:21:40;;;;;;;7.30;3.90;;;;;;;13.56;100.00;62250.06;5111761;28;20206;-71
2022/04/23 05:24:08;;;;;;;5.07;3.43;;;;;;;13.49;100.00;62239.44;5111938;28;20659;-72
2022/04/23 05:26:35;;;;;;;10.33;4.57;;;;;;;13.42;100.00;62234.50;5111874;28;20195;-71
2022/04/23 05:29:02;;;;;;;8.27;4.13;;;;;;;13.39;100.00;62231.25;5111956;28;20629;-71
2022/04/23 05:31:29;;;;;;;13.23;4.10;;;;;;;13.32;100.00;62223.75;5111431;28;20291;-72
2022/04/23 05:33:56;;;;;;;8.07;4.60;;;;;;;13.28;100.00;62216.91;5111640;28;20665;-72
2022/04/23 05:36:23;;;;;;;7.43;3.93;;;;;;;13.25;100.00;62216.75;5111486;28;20194;-73
2022/04/23 05:38:51;;;;;;;9.97;4.07;;;;;;;13.27;100.00;62218.38;5111540;28;20687;-74
2022/04/23 05:41:18;;;;;;;8.20;3.80;;;;;;;13.29;100.00;62223.06;5111738;28;20363;-71
2022/04/23 05:43:45;;;;;;;6.30;4.07;;;;;;;13.41;100.00;62233.41;5111641;28;20216;-73
2022/04/23 05:46:11;;;;;;;7.80;4.07;;;;;;;13.55;100.00;62251.00;5111563;28;20191;-72
2022/04/23 05:48:38;;;;;;;9.03;3.53;;;;;;;13.58;100.00;62252.19;5111531;28;20206;-71
2022/04/23 05:51:06;;;;;;;5.83;3.70;;;;;;;13.55;100.00;62246.44;5114972;28;20199;-72
2022/04/23 05:53:33;;;;;;;9.40;3.90;;;;;;;13.67;100.00;62260.81;5115567;28;20195;-73
2022/04/23 05:56:01;;;;;;;8.37;3.57;;;;;;;13.84;100.00;62276.53;5115645;28;20191;-73
2022/04/23 05:58:28;;;;;;;14.13;4.10;;;;;;;13.76;100.00;62273.59;5115430;28;20252;-72
2022/04/23 06:00:56;;;;;;;5.47;3.60;;;;;;;13.73;100.00;62267.78;5115392;28;20630;-72
2022/04/23 06:03:22;;;;;;;7.80;3.40;;;;;;;13.72;100.00;62266.72;5115413;28;20227;-73
2022/04/23 06:05:51;;;;;;;7.47;3.87;;;;;;;13.61;100.00;62251.78;5115582;28;20256;-72
2022/04/23 06:08:18;;;;;;;13.83;4.87;;;;;;;13.79;100.00;62271.69;5115475;28;20205;-71
2022/04/23 06:10:45;;;;;;;9.20;4.33;;;;;;;14.28;100.00;62326.94;5115049;28;20203;-72
2022/04/23 06:13:14;;;;;;;7.17;4.10;;;;;;;14.51;100.00;62350.59;5115078;28;20199;-72
2022/04/23 06:15:40;;;;;;;11.37;4.53;;;;;;;14.50;100.00;62346.94;5114958;28;21128;-71
2022/04/23 06:18:07;;;;;;;8.37;4.50;;;;;;;14.65;100.00;62365.66;5115254;28;20224;-73
2022/04/23 06:20:35;;;;;;;9.10;4.77;;;;;;;15.02;100.00;62405.44;5114808;28;20219;-72
2022/04/23 06:23:04;;;;;;;12.13;4.13;;;;;;;14.63;100.00;62363.50;5114856;28;20219;-73
2022/04/23 06:25:32;;;;;;;9.40;4.30;;;;;;;14.18;100.00;62316.16;5114800;28;20263;-72
2022/04/23 06:27:59;;;;;;;8.27;4.10;;;;;;;14.90;100.00;62392.53;5114822;28;20198;-72
2022/04/23 06:30:27;;;;;;;9.23;5.10;;;;;;;15.19;100.00;62423.75;5114656;28;20231;-71
2022/04/23 06:32:54;;;;;;;10.17;4.50;;;;;;;15.31;100.00;62438.69;5114912;28;20203;-72
2022/04/23 06:35:21;;;;;;;14.57;5.10;;;;;;;15.63;100.00;62470.59;5114696;28;20287;-73
2022/04/23 06:37:49;;;;;;;18.23;7.13;;;;;;;15.91;100.00;62501.28;5114645;28;20660;-72
2022/04/23 06:40:16;;;;;;;14.97;7.87;;;;;;;16.14;100.00;62524.97;5114432;28;20259;-72
2022/04/23 06:42:43;;;;;;;17.50;7.77;;;;;;;16.29;100.00;62543.69;5114172;28;20191;-72
2022/04/23 06:45:10;;;;;;;15.43;6.70;;;;;;;16.31;100.00;62545.84;5114372;28;20195;-71
2022/04/23 06:47:38;;;;;;;15.07;7.17;;;;;;;16.68;100.00;62583.19;5114398;28;20199;-72
2022/04/23 06:50:07;;;;;;;12.70;6.30;;;;;;;17.13;100.00;62631.66;5113142;28;20210;-72
2022/04/23 06:52:34;;;;;;;13.93;6.63;;;;;;;16.86;100.00;62603.09;5114873;28;20281;-71
2022/04/23 06:55:00;;;;;;;15.30;4.47;;;;;;;16.72;100.00;62587.50;5114113;28;20203;-72
2022/04/23 06:57:27;;;;;;;10.20;4.93;;;;;;;17.29;100.00;62648.91;5113966;28;20251;-72
2022/04/23 06:59:54;;;;;;;8.13;4.23;;;;;;;17.61;100.00;62683.44;5114019;28;20665;-72
2022/04/23 07:02:22;;;;;;;12.83;4.80;;;;;;;17.90;100.00;62711.63;5113957;28;20195;-72
2022/04/23 07:04:50;;;;;;;10.13;4.43;;;;;;;17.87;100.00;62710.44;5113896;28;20257;-72
2022/04/23 07:07:17;;;;;;;9.00;4.53;;;;;;;18.23;100.00;62749.28;5113986;28;20252;-73
2022/04/23 07:09:44;;;;;;;10.73;3.97;;;;;;;18.60;100.00;62789.22;5113989;28;20207;-73
2022/04/23 07:12:11;;;;;;;8.97;4.33;;;;;;;19.14;100.00;62842.38;5113880;28;20256;-72
2022/04/23 07:14:39;;;;;;;11.13;4.30;;;;;;;19.33;100.00;62865.50;5114022;28;20195;-72
2022/04/23 07:17:06;;;;;;;9.30;4.30;;;;;;;19.30;100.00;62867.41;5114059;28;20286;-73
2022/04/23 07:19:33;;;;;;;14.93;4.47;;;;;;;19.47;100.00;62882.13;5113777;28;20225;-72
2022/04/23 07:22:01;;;;;;;7.00;4.20;;;;;;;19.52;100.00;62888.06;5113842;28;20203;-73
2022/04/23 07:24:28;;;;;;;7.77;4.07;;;;;;;19.20;100.00;62848.84;5113931;28;20237;-71
2022/04/23 07:26:55;;;;;;;6.33;4.13;;;;;;;20.01;100.00;62940.50;5114079;28;20256;-72
2022/04/23 07:29:22;;;;;;;8.63;4.23;;;;;;;19.72;100.00;62906.56;5113376;28;20195;-73
2022/04/23 07:31:49;;;;;;;7.53;4.13;;;;;;;20.07;100.00;62941.81;5113782;28;20191;-72
2022/04/23 07:39:51;;;;;;;10.00;3.50;;;;;;;20.63;100.00;63004.97;5102458;28;20202;-72
2022/04/23 07:42:18;;;;;;;6.10;2.80;;;;;;;20.58;100.00;62996.44;5113231;28;20203;-72
2022/04/23 07:44:45;;;;;;;9.00;2.80;;;;;;;20.14;100.00;62954.56;5113103;27;20317;-72
2022/04/23 07:47:12;;;;;;;6.87;2.60;;;;;;;19.57;100.00;62892.94;5113138;28;20202;-73
2022/04/23 07:49:39;;;;;;;10.03;2.70;;;;;;;19.72;100.00;62909.16;5112972;28;20259;-74
2022/04/23 07:52:07;;;;;;;5.07;2.63;;;;;;;19.70;100.00;62912.16;5113242;28;20194;-72
2022/04/23 07:54:37;;;;;;;6.33;2.80;;;;;;;19.67;100.00;62901.72;5112734;28;20191;-73
2022/04/23 07:57:06;;;;;;;5.20;3.10;;;;;;;19.42;100.00;62876.75;5112849;28;20290;-72
2022/04/23 07:59:32;;;;;;;7.57;2.93;;;;;;;18.73;100.00;62800.69;5112723;28;20256;-73
2022/04/23 08:02:01;;;;;;;7.37;3.70;;;;;;;18.13;100.00;62739.00;5112980;28;20207;-72
2022/04/23 08:04:28;;;;;;;4.30;2.50;;;;;;;18.22;100.00;62748.19;5112700;28;20231;-73
2022/04/23 08:06:54;;;;;;;4.97;2.57;;;;;;;18.31;100.00;62757.91;5112859;28;20205;-72
2022/04/23 08:09:23;;;;;;;8.30;2.80;;;;;;;18.10;100.00;62735.25;5112791;28;20615;-73
2022/04/23 08:11:49;;;;;;;5.27;2.77;;;;;;;17.52;100.00;62668.59;5112402;28;20673;-73
2022/04/23 08:14:16;;;;;;;7.80;3.47;;;;;;;17.50;100.00;62671.59;5111115;28;20618;-71
2022/04/23 08:16:45;;;;;;;14.00;3.27;;;;;;;17.09;100.00;62627.34;5112605;28;20252;-74
2022/04/23 08:19:12;;;;;;;6.17;2.90;;;;;;;17.16;100.00;62632.34;5112488;28;20279;-73
2022/04/23 08:21:39;;;;;;;7.60;3.50;;;;;;;16.71;100.00;62583.81;5112617;28;20195;-72
2022/04/23 08:24:06;;;;;;;7.60;2.90;;;;;;;16.42;100.00;62553.09;5112648;28;20287;-72
2022/04/23 08:26:34;;;;;;;9.53;3.10;;;;;;;17.30;100.00;62655.16;5112333;28;20203;-71
2022/04/23 08:31:45;;;;;;;9.27;3.07;;;;;;;17.41;100.00;62661.88;5112576;28;20548;-72
2022/04/23 08:34:12;;;;;;;10.93;3.17;;;;;;;17.52;100.00;62671.19;5112313;28;20203;-72
2022/04/23 08:36:39;;;;;;;7.20;3.20;;;;;;;17.33;100.00;62650.66;5112025;28;20203;-73
2022/04/23 08:39:07;;;;;;;10.87;3.60;;;;;;;17.12;100.00;62630.59;5112237;28;20207;-73
2022/04/23 08:41:35;;;;;;;5.27;3.00;;;;;;;17.17;100.00;62635.97;5112676;28;20194;-72
2022/04/23 08:44:05;;;;;;;7.03;2.73;;;;;;;17.09;100.00;62627.34;5111857;28;20222;-72
2022/04/23 08:46:33;;;;;;;11.97;4.07;;;;;;;17.19;100.00;62638.13;5112208;28;20323;-71
2022/04/23 08:49:18;;;;;;;5.57;4.17;;;;;;;17.12;100.00;62625.47;5112081;28;20198;-73
2022/04/23 08:51:51;;;;;;;4.93;3.50;;;;;;;17.02;100.00;62619.28;5111986;28;20195;-71
2022/04/23 08:54:18;;;;;;;6.70;2.63;;;;;;;17.43;100.00;62663.47;5111922;28;20199;-72
2022/04/23 08:56:47;;;;;;;5.70;2.80;;;;;;;17.88;100.00;62714.06;5111987;28;20191;-72
2022/04/23 08:59:15;;;;;;;3.00;2.07;;;;;;;18.10;100.00;62735.25;5112110;28;20201;-72
2022/04/23 09:01:44;;;;;;;4.93;2.63;;;;;;;18.14;100.00;62739.56;5112157;28;20206;-73
2022/04/23 09:04:12;;;;;;;6.77;1.70;;;;;;;18.38;100.00;62766.00;5111605;28;20222;-73
2022/04/23 09:06:41;;;;;;;9.63;5.47;;;;;;;18.50;100.00;62778.44;5111921;28;20579;-72
2022/04/23 09:09:10;;;;;;;14.10;7.70;;;;;;;18.18;100.00;62743.88;5111803;28;20203;-73
2022/04/23 09:11:39;;;;;;;15.50;8.03;;;;;;;17.83;100.00;62706.13;5111959;28;20635;-72
2022/04/23 09:14:10;;;;;;;5.17;3.10;;;;;;;18.73;100.00;62803.28;5112034;28;20220;-72
2022/04/23 09:25:10;;;;;;;3.37;2.20;;;;;;;17.73;100.00;62698.97;5113683;28;20613;-72
2022/04/23 09:27:37;;;;;;;6.83;2.43;;;;;;;18.99;100.00;62831.34;5115926;28;20670;-73
2022/04/23 09:30:08;;;;;;;4.60;2.23;;;;;;;18.16;100.00;62741.72;5115993;28;20588;-73
2022/04/23 09:32:36;;;;;;;4.67;2.20;;;;;;;18.42;100.00;62767.19;5116261;28;20195;-73
2022/04/23 09:35:10;;;;;;;8.90;4.80;;;;;;;17.96;100.00;62720.13;5115833;28;20260;-72
2022/04/23 09:40:22;;;;;;;13.20;7.50;;;;;;;17.60;100.00;62679.25;5115807;28;20193;-73
2022/04/23 09:42:57;;;;;;;9.63;4.73;;;;;;;17.80;100.00;62703.41;5115719;28;20256;-72
2022/04/23 09:45:29;;;;;;;8.60;2.20;;;;;;;17.98;100.00;62724.88;5115559;28;20226;-72
2022/04/23 09:47:56;;;;;;;7.53;2.30;;;;;;;17.73;100.00;62692.75;5115580;28;20681;-71
2022/04/23 09:50:24;;;;;;;10.63;5.20;;;;;;;17.70;100.00;62693.16;5114575;28;20293;-72
2022/04/23 09:52:53;;;;;;;14.27;9.03;;;;;;;17.70;100.00;62687.47;5115416;28;20605;-72
2022/04/23 09:55:21;;;;;;;13.80;5.57;;;;;;;17.67;100.00;62687.34;5115608;28;20195;-73
2022/04/23 09:57:49;;;;;;;8.40;6.23;;;;;;;17.06;100.00;62623.59;5115473;28;20646;-71
2022/04/23 10:00:18;;;;;;;7.60;3.30;;;;;;;17.49;100.00;62667.38;5115337;28;20191;-72
2022/04/23 10:02:47;;;;;;;7.60;3.13;;;;;;;17.34;100.00;62648.63;5115264;28;20222;-72
2022/04/23 10:05:18;;;;;;;10.03;6.40;;;;;;;17.63;100.00;62685.06;5115440;27;20230;-72
2022/04/23 10:07:48;;;;;;;6.37;3.87;;;;;;;17.59;100.00;62681.28;5115114;28;20194;-72
2022/04/23 10:10:18;;;;;;;11.70;6.10;;;;;;;16.82;100.00;62593.63;5115316;28;20199;-73
2022/04/23 10:12:46;;;;;;;6.40;2.90;;;;;;;17.86;100.00;62706.78;5115038;28;20728;-71
2022/04/23 10:15:15;;;;;;;4.93;3.00;;;;;;;18.33;100.00;62760.06;5114640;28;20285;-72
2022/04/23 10:17:43;;;;;;;11.27;4.17;;;;;;;19.29;100.00;62858.03;5114762;28;20724;-73
2022/04/23 10:20:13;;;;;;;9.80;3.17;;;;;;;20.05;100.00;62939.66;5115151;28;20279;-72
2022/04/23 10:22:54;;;;;;;4.80;2.50;;;;;;;20.68;100.00;63012.44;5115019;28;20203;-72
2022/04/23 10:25:30;;;;;;;4.83;2.77;;;;;;;21.05;100.00;63049.34;5114645;28;20317;-71
2022/04/23 10:27:59;;;;;;;5.90;2.87;;;;;;;21.69;100.00;63116.03;5114980;28;20224;-72
2022/04/23 10:30:31;;;;;;;5.43;2.33;;;;;;;22.05;100.00;63154.47;5114399;28;20227;-72
2022/04/23 10:32:59;;;;;;;9.93;3.67;;;;;;;22.02;100.00;63156.97;5114850;28;20202;-73
2022/04/23 10:35:41;;;;;;;7.67;2.47;;;;;;;21.66;100.00;63117.97;5114007;28;20259;-71
2022/04/23 10:38:20;;;;;;;4.30;2.13;;;;;;;21.50;100.00;63098.59;5114453;28;20203;-72
2022/04/23 10:40:47;;;;;;;5.87;2.40;;;;;;;21.65;100.00;63111.69;5114769;28;20203;-73
2022/04/23 10:43:19;;;;;;;3.77;2.00;;;;;;;21.55;100.00;63100.88;5114483;28;20578;-72
2022/04/23 10:45:48;;;;;;;6.80;2.30;;;;;;;22.04;100.00;63159.13;5114485;28;20273;-73
2022/04/23 10:48:45;;;;;;;7.93;2.40;;;;;;;22.99;100.00;63255.78;5114516;28;20199;-73
2022/04/23 10:51:19;;;;;;;6.17;2.27;;;;;;;23.30;100.00;63292.00;5093155;28;20195;-74
2022/04/23 10:53:55;;;;;;;7.63;2.30;;;;;;;22.98;100.00;63259.91;5114572;28;20195;-73
2022/04/23 10:56:23;;;;;;;5.47;2.10;;;;;;;22.83;100.00;63241.59;5114351;28;20194;-71
2022/04/23 10:58:53;;;;;;;9.10;2.10;;;;;;;22.83;100.00;63243.66;5113882;27;20290;-74
2022/04/23 11:01:22;;;;;;;11.07;2.40;;;;;;;23.26;100.00;63290.28;5114270;27;20209;-71
2022/04/23 11:04:13;;;;;;;9.07;2.67;;;;;;;23.92;100.00;63359.25;5114344;28;20237;-73
2022/04/23 11:12:33;;;;;;;3.90;2.00;;;;;;;24.67;100.00;63442.19;5114003;28;20219;-71
2022/04/23 11:15:01;;;;;;;9.07;2.70;;;;;;;24.54;100.00;63428.06;5114274;28;20207;-73
2022/04/23 11:17:54;;;;;;;9.00;2.83;;;;;;;25.13;100.00;63492.16;5113882;28;20200;-73
2022/04/23 11:20:31;;;;;;;7.80;2.60;;;;;;;24.49;100.00;63423.19;5114131;28;20233;-73
2022/04/23 11:23:01;;;;;;;9.53;2.60;;;;;;;23.91;100.00;63360.78;5113850;28;20197;-74
2022/04/23 11:25:28;;;;;;;11.80;2.57;;;;;;;23.30;100.00;63294.59;5113622;28;20306;-72
2022/04/23 11:28:01;;;;;;;6.70;2.43;;;;;;;22.82;100.00;63242.56;5113771;28;20195;-72
2022/04/23 11:30:30;;;;;;;8.33;2.70;;;;;;;23.44;100.00;63309.81;5113798;28;20258;-72
2022/04/23 11:33:11;;;;;;;6.60;2.63;;;;;;;23.96;100.00;63366.22;5113638;28;20199;-73
2022/04/23 11:35:38;;;;;;;10.23;3.80;;;;;;;24.57;100.00;63426.13;5113793;28;20744;-72
2022/04/23 11:38:06;;;;;;;7.47;3.00;;;;;;;24.60;100.00;63431.97;5112369;28;20286;-73
2022/04/23 11:40:35;;;;;;;9.80;2.77;;;;;;;24.83;100.00;63456.97;5113333;28;20191;-72
2022/04/23 11:43:03;;;;;;;9.03;2.60;;;;;;;24.94;100.00;63466.31;5113327;28;20195;-74
2022/04/23 11:45:30;;;;;;;7.63;3.07;;;;;;;24.26;100.00;63409.19;5113670;28;20226;-73
2022/04/23 11:47:56;;;;;;;6.27;2.27;;;;;;;24.70;100.00;63446.00;5115578;28;20204;-73
2022/04/23 11:50:23;;;;;;;11.37;2.30;;;;;;;24.48;100.00;63416.91;5115127;28;20200;-72
2022/04/23 11:52:58;;;;;;;6.77;2.47;;;;;;;23.54;100.00;63320.66;5113402;28;20229;-72